CheckWX is a tool to help pilots better visualize weather data.  It is not intended as a substitute for an official pre-flight weather briefing.

01:09:54 UTC

KLXN METAR
Jim Kelly Field Airport
Lexington, Nebraska, USA
Current

35 mins ago

KLXN 200035Z AUTO 10008KT 10SM CLR 33/25 A2972 RMK AO2 T03300250
Observed
Jul-20 @ 00:35 UTC
Wind
  • 100° at 8 KTS
Visibility
10 SM
Flight Rules
VFR
Cloud Levels
  • Clear skies
Temperature
33°C / 91°F
Dewpoint
25°C / 77°F
Heat Index
40°C / 104°F
Humidity
63%
Altimeter
29.72" Hg
Pressure
1006.42 hPa
Previous

55 mins ago

KLXN 200015Z AUTO 10005KT 10SM CLR 34/26 A2972 RMK AO2 T03350258
Observed
Jul-20 @ 00:15 UTC
Wind
  • 100° at 5 KTS
Visibility
10 SM
Flight Rules
VFR
Cloud Levels
  • Clear skies
Temperature
34°C / 93°F
Dewpoint
26°C / 79°F
Heat Index
43°C / 110°F
Humidity
63%
Altimeter
29.72" Hg
Pressure
1006.42 hPa
Previous

1 hour ago

KLXN 192355Z AUTO 11006KT 10SM CLR 34/25 A2973 RMK AO2 T03420254 10350 20315
Observed
Jul-19 @ 23:55 UTC
Wind
  • 110° at 6 KTS
Visibility
10 SM
Flight Rules
VFR
Cloud Levels
  • Clear skies
Temperature
34°C / 93°F
Dewpoint
25°C / 77°F
Heat Index
42°C / 107°F
Humidity
59%
Altimeter
29.73" Hg
Pressure
1006.82 hPa